Meteo4 di Emilio Bellavite Il primo osservatorio Meteo di Verona  
 
martedì 11 dicembre 2018
 
 
dati in tempo reale
Di seguito i dati in tempo reale delle stazioni on line, suddivise per regione, della rete di Meteo4. Cliccando sul link della stazione, ove presente, si accederà al sito web personale.
Stazioni online
Regione ABRUZZO
Località Giorno Ora Temp. Umid. Relat. Dew Point Press. Atm. Velocità Vento Direz. Vento Precip. Temp.
Min
Temp.
Max
San Salvo3 (CH) 11/12/18 22.19 4.8 °C 78 % 1.3 °C 1017.1 hPa 1.6 Km/h SE 1.6 mm  4.8 °C 10.7 °C
Spoltore (PE) 11/12/18 22.10 4.1 °C 90 % 2.6 °C 1019.0 hPa 0.0 Km/h NW 0.0 mm  4.0 °C 10.9 °C
Vasto (CH) 11/12/18 20.31 7.6 °C 10 % -22.1 °C 1019.6 hPa 11.5 Km/h N 2.1 mm  5.8 °C 11.7 °C
 
 
Regione BASILICATA
Località Giorno Ora Temp. Umid. Relat. Dew Point Press. Atm. Velocità Vento Direz. Vento Precip. Temp.
Min
Temp.
Max
Miglionico (MT) 11/12/18 22.10 3.3 °C 83 % 0.7 °C 1016.9 hPa 11.3 Km/h NW 0.2 mm  0.9 °C 6.7 °C
 
 
Regione CALABRIA
Località Giorno Ora Temp. Umid. Relat. Dew Point Press. Atm. Velocità Vento Direz. Vento Precip. Temp.
Min
Temp.
Max
Bisignano (CS) 11/12/18 22.18 5.7 °C 73 % 1.2 °C 1020.0 hPa 0.0 Km/h E 0.4 mm  5.6 °C 13.1 °C
Savelli (KR) 11/12/18 22.19 1.8 °C 79 % -1.5 °C 1020.1 hPa 7.0 Km/h W 0.0 mm  1.0 °C 5.1 °C
 
 
Regione CAMPANIA
Località Giorno Ora Temp. Umid. Relat. Dew Point Press. Atm. Velocità Vento Direz. Vento Precip. Temp.
Min
Temp.
Max
 
 
Regione EMILIA ROMAGNA
Località Giorno Ora Temp. Umid. Relat. Dew Point Press. Atm. Velocità Vento Direz. Vento Precip. Temp.
Min
Temp.
Max
Bellaria Igea Marina (RN) 11/12/18 22.18 2.8 °C 80 % -0.3 °C 1018.9 hPa 4.8 Km/h SSW 0.0 mm  2.1 °C 11.3 °C
Bellaria Igea Marina2 (RN) 11/12/18 22.18 2.8 °C 81 % -0.1 °C 1018.5 hPa 3.2 Km/h WSW 0.0 mm  2.2 °C 11.5 °C
Carpi (MO) 11/12/18 22.19 0.9 °C 74 % -3.2 °C 1018.9 hPa 0.0 Km/h SSW 0.0 mm  0.9 °C 12.3 °C
Filo di Argenta (FE) 11/12/18 22.15 0.7 °C 68 % -4.5 °C 1019.8 hPa 3.7 Km/h SW 0.0 mm  -0.3 °C 11.0 °C
Masiera di Bagnacavallo (RA) 11/12/18 22.15 1.4 °C 67 % -4.1 °C 1018.9 hPa 3.8 Km/h NNE 0.0 mm  1.5 °C 10.8 °C
Migliarino (FE) 11/12/18 22.19 3.3 °C 72 % -1.3 °C 1019.0 hPa 1.1 Km/h N 0.0 mm  1.5 °C 13.3 °C
Ponte San Pellegrino (MO) 11/12/18 22.17 2.3 °C 64 % -3.8 °C 1022.3 hPa 0.0 Km/h SW 0.0 mm  1.7 °C 12.0 °C
Riccione (RN) 11/12/18 22.16 3.0 °C 77 % -0.6 °C 1019.2 hPa 0.0 Km/h SW 0.0 mm  3.0 °C 11.0 °C
Rimini (RN) 11/12/18 22.10 3.5 °C 69 % -1.6 °C 1019.6 hPa 0.0 Km/h WSW 0.0 mm  3.5 °C 11.7 °C
Rimini Zona Palas (RN) 11/12/18 22.15 3.9 °C 74 % -0.3 °C 1019.8 hPa 0.0 Km/h S 0.0 mm  3.8 °C 11.0 °C
San Potito Lugo (RA) 11/12/18 22.15 -1.5 °C 72 % -5.9 °C 1011.0 hPa 0.0 Km/h NW 0.0 mm  -1.6 °C 11.1 °C
Stiore - Monteveglio (BO) 11/12/18 22.18 2.1 °C 49 % -7.5 °C 1016.5 hPa 9.7 Km/h ESE 0.0 mm  1.6 °C 11.4 °C
 
 
Regione FRIULI V.G.
Località Giorno Ora Temp. Umid. Relat. Dew Point Press. Atm. Velocità Vento Direz. Vento Precip. Temp.
Min
Temp.
Max
Budoia (PN) 11/12/18 22.15 3.9 °C 42 % -7.8 °C 1018.9 hPa 3.2 Km/h NNW 0.0 mm  2.7 °C 10.4 °C
Campoformido (UD) 11/12/18 22.17 3.8 °C 47 % -6.6 °C 1018.9 hPa 4.7 Km/h N 0.0 mm  2.2 °C 10.8 °C
Codroipo (UD) 11/12/18 22.18 0.7 °C 63 % -5.5 °C 1017.3 hPa 0.1 Km/h E 0.0 mm  0.4 °C 10.2 °C
Fogliano Redipuglia (GO) 11/12/18 22.19 -0.8 °C 74 % -4.9 °C 1019.0 hPa 1.4 Km/h E 0.0 mm  -0.8 °C 14.9 °C
Fontanafredda (PN) 11/12/18 22.18 0.1 °C 81 % -2.8 °C 1018.3 hPa 6.1 Km/h NNE 0.0 mm  -1.3 °C 11.2 °C
Gorizia (GO) 11/12/18 22.19 0.3 °C 74 % -3.8 °C 1018.5 hPa 0.0 Km/h WNW 0.0 mm  -0.8 °C 10.9 °C
Ovaro loc. Liariis (UD) 11/12/18 22.05 -1.1 °C 59 % -8.1 °C 1021.6 hPa 0.0 Km/h NE 0.0 mm  -1.7 °C 7.9 °C
Pordenone (PN) 11/12/18 22.10 1.8 °C 79 % -1.5 °C 1018.4 hPa 0.0 Km/h --- 0.0 mm  0.1 °C 11.9 °C
Sacile (PN) 11/12/18 22.05 2.4 °C 63 % -3.9 °C 1018.8 hPa 1.6 Km/h SSW 0.0 mm  -0.2 °C 11.9 °C
Sacile2 (PN) 11/12/18 22.15 -0.6 °C 82 % -3.3 °C 1023.0 hPa 0.0 Km/h --- 0.0 mm  -0.7 °C 12.9 °C
Staranzano (GO) 11/12/18 22.00 0.3 °C 72 % -4.1 °C 1019.2 hPa 0.0 Km/h NNW 0.0 mm  0.1 °C 11.4 °C
 
 
Regione LAZIO
Località Giorno Ora Temp. Umid. Relat. Dew Point Press. Atm. Velocità Vento Direz. Vento Precip. Temp.
Min
Temp.
Max
Acquapendente (VT) 08/12/18 03.16 12.3 °C 88 % 10.4 °C 1011.9 hPa 5.8 Km/h S 0.0 mm  11.5 °C 12.5 °C
Ardea (RM) 11/12/18 22.17 4.8 °C 70 % -0.2 °C 1019.0 hPa 0.0 Km/h N 0.0 mm  3.5 °C 16.6 °C
Capodimonte (VT) 11/12/18 22.15 6.2 °C 69 % 0.9 °C 1020.4 hPa 0.0 Km/h N 0.0 mm  5.1 °C 11.3 °C
Caprarola Centro Storico (VT) 11/12/18 22.18 4.8 °C 39 % -8.0 °C 1018.0 hPa 3.2 Km/h WNW 0.0 mm  2.8 °C 9.7 °C
Civita Castellana (VT) 11/12/18 22.19 2.1 °C 61 % -4.6 °C 1019.7 hPa 2.4 Km/h S 0.0 mm  2.1 °C 11.9 °C
Marta (VT) 11/12/18 22.18 6.2 °C 63 % -0.3 °C 1016.6 hPa 1.4 Km/h NW 0.0 mm  4.5 °C 11.2 °C
Pomezia (RM) 11/12/18 22.19 7.8 °C 55 % -0.7 °C 1017.7 hPa 12.9 Km/h NW 0.0 mm  5.1 °C 13.2 °C
Rocca Priora (RM) 11/12/18 21.35 5.2 °C 48 % -4.9 °C 1020.4 hPa 0.0 Km/h --- 0.0 mm  4.2 °C 8.7 °C
Ronciglione Centro (VT) 11/12/18 22.15 4.6 °C 39 % -8.2 °C 1015.0 hPa 1.9 Km/h NW 0.0 mm  4.3 °C 12.2 °C
Ronciglione - Ponte Cuzzoli (VT) 11/12/18 22.19 2.1 °C 66 % -3.6 °C 1019.4 hPa 3.2 Km/h WNW 0.0 mm  1.0 °C 11.6 °C
S. Lorenzo Nuovo (VT) 11/12/18 22.19 3.3 °C 59 % -4.0 °C 1015.0 hPa 7.6 Km/h NNE 0.0 mm  3.3 °C 9.6 °C
Tuscania (VT) 11/12/18 08.15 5.0 °C 54 % -3.5 °C 1017.5 hPa 2.6 Km/h ENE 0.0 mm  2.4 °C 7.4 °C
Valentano (VT) 11/12/18 22.19 4.2 °C 59 % -3.3 °C 1018.0 hPa 0.0 Km/h NE 0.0 mm  4.1 °C 9.6 °C
Viterbo Santa Barbara (VT) 11/12/18 22.02 3.9 °C 60 % -3.2 °C 1018.7 hPa 2.2 Km/h ENE 0.0 mm  2.8 °C 10.9 °C
Viterbo Strada Bagni (VT) 11/12/18 22.15 1.0 °C 80 % -2.1 °C 1018.8 hPa 0.0 Km/h NE 0.0 mm  -2.0 °C 13.0 °C
Vitorchiano Pallone (VT) 11/12/18 18.50 6.7 °C 46 % -4.2 °C 1017.2 hPa 1.6 Km/h ENE 0.0 mm  4.3 °C 10.4 °C
 
 
Regione LIGURIA
Località Giorno Ora Temp. Umid. Relat. Dew Point Press. Atm. Velocità Vento Direz. Vento Precip. Temp.
Min
Temp.
Max
Arenzano (GE) 11/12/18 22.18 10.9 °C 23 % -9.4 °C 1018.4 hPa 0.0 Km/h NE 0.0 mm  10.6 °C 14.8 °C
Cosseria Lidora (SV) 11/12/18 22.00 1.6 °C 69 % -3.5 °C 1019.7 hPa 0.0 Km/h --- 0.0 mm  -2.6 °C 10.1 °C
Genova (GE) 11/12/18 22.19 8.8 °C 28 % -8.7 °C 1021.3 hPa 14.5 Km/h NE 0.0 mm  8.8 °C 14.7 °C
Genova Erzelli (GE) 11/12/18 22.13 8.7 °C 32 % -7.1 °C 1017.4 hPa 19.3 Km/h N 0.0 mm  8.7 °C 15.2 °C
Genova Oregina (GE) 11/12/18 22.18 10.1 °C 18 % -13.2 °C 1018.2 hPa 12.9 Km/h N 0.0 mm  9.1 °C 12.9 °C
Loano (SV) 11/12/18 22.15 11.7 °C 46 % 0.4 °C 1017.8 hPa 3.0 Km/h WNW 0.0 mm  9.2 °C 15.1 °C
Moneglia loc. Casale (GE) 11/12/18 22.18 8.9 °C 22 % -11.7 °C 1019.5 hPa 6.4 Km/h N 0.0 mm  8.6 °C 14.5 °C
Moneglia loc. La Secca (GE) 11/12/18 22.19 10.1 °C 23 % -10.1 °C 1018.0 hPa 4.8 Km/h NNE 0.0 mm  9.0 °C 18.3 °C
Ortonovo (SP) 11/12/18 22.19 8.1 °C 25 % -10.8 °C 1018.3 hPa 7.2 Km/h NE 0.0 mm  7.8 °C 14.8 °C
Varese Ligure (SP) 11/12/18 22.18 -0.7 °C 63 % -6.9 °C 1018.0 hPa 4.0 Km/h N 0.0 mm  -0.7 °C 11.8 °C
 
 
Regione LOMBARDIA
Località Giorno Ora Temp. Umid. Relat. Dew Point Press. Atm. Velocità Vento Direz. Vento Precip. Temp.
Min
Temp.
Max
Bernate Ticino fraz. Casate (MI) 11/12/18 22.18 1.2 °C 60 % -5.7 °C 1016.5 hPa 0.0 Km/h NE 0.0 mm  0.6 °C 12.2 °C
Besozzo (VA) 11/12/18 22.18 -1.1 °C 69 % -6.1 °C 1019.7 hPa 6.4 Km/h ESE 0.0 mm  -1.8 °C 13.4 °C
Calcinato (BS) 11/12/18 22.18 5.9 °C 47 % -4.6 °C 1021.6 hPa 6.4 Km/h NNE 0.0 mm  0.5 °C 11.6 °C
Cassano Magnago (VA) 11/12/18 22.09 2.0 °C 52 % -6.8 °C 1019.5 hPa 0.0 Km/h N 0.0 mm  2.0 °C 11.3 °C
Cavaria con Premezzo (VA) 11/12/18 22.15 1.2 °C 57 % -6.4 °C 1019.3 hPa 0.0 Km/h SSE 0.0 mm  1.1 °C 11.8 °C
Costa Volpino (BG) 06/12/18 12.20 10.9 °C 64 % 4.4 °C 1019.2 hPa 2.2 Km/h W 0.0 mm  6.5 °C 11.1 °C
Dorno (PV) 11/12/18 22.18 2.5 °C 85 % 0.2 °C 1019.9 hPa 0.0 Km/h SW 0.0 mm  0.2 °C 10.6 °C
Esine (BS) 11/12/18 22.18 2.0 °C 46 % -8.5 °C 1019.5 hPa 3.2 Km/h NE 0.0 mm  1.5 °C 12.0 °C
Gaggiano (MI) 11/12/18 22.18 3.8 °C 64 % -2.4 °C 1019.2 hPa 5.2 Km/h N 0.0 mm  1.6 °C 13.0 °C
Laxolo (BG) 11/12/18 22.16 -0.9 °C 56 % -8.5 °C 1013.9 hPa 0.0 Km/h W 0.0 mm  -0.9 °C 10.5 °C
Lesmo (MB) 11/12/18 22.15 -1.4 °C 70 % -6.2 °C 1019.9 hPa 0.0 Km/h --- 0.0 mm  -1.6 °C 12.3 °C
Malnate San Salvatore (VA) 11/12/18 22.10 1.4 °C 49 % -8.2 °C 1020.4 hPa 0.0 Km/h NW 0.0 mm  0.7 °C 11.1 °C
Mezzana Bigli (PV) 11/12/18 22.15 1.0 °C 88 % -0.8 °C 1018.7 hPa 0.0 Km/h SW 0.0 mm  -0.6 °C 10.9 °C
Montagna in Valtellina (SO) 11/12/18 22.19 0.6 °C 67 % -4.9 °C 1022.6 hPa 0.0 Km/h SW 0.0 mm  0.6 °C 10.7 °C
Rivalta sul Mincio (MN) 11/12/18 22.12 0.3 °C 88 % -1.4 °C 1019.9 hPa 1.5 Km/h N 0.0 mm  0.2 °C 11.2 °C
 
 
Regione MARCHE
Località Giorno Ora Temp. Umid. Relat. Dew Point Press. Atm. Velocità Vento Direz. Vento Precip. Temp.
Min
Temp.
Max
Ancona (AN) 11/12/18 22.10 2.9 °C 78 % -0.5 °C 1019.8 hPa 0.0 Km/h SE 4.4 mm  2.9 °C 10.6 °C
Ancona loc. Brecce Bianche (AN) 11/12/18 22.18 3.3 °C 60 % -3.7 °C 1021.8 hPa 1.1 Km/h SSE 2.7 mm  3.3 °C 11.0 °C
Barbara (AN) 11/12/18 22.18 3.6 °C 74 % -0.6 °C 1022.4 hPa 13.0 Km/h S 0.0 mm  3.6 °C 10.1 °C
Ca' Gallo (PU) 11/12/18 22.10 1.3 °C 79 % -2.0 °C 1014.8 hPa 5.0 Km/h NNW 0.0 mm  -1.0 °C 12.2 °C
Marina di Montemarciano (AN) 11/12/18 22.15 4.2 °C 76 % 0.4 °C 1019.7 hPa 3.2 Km/h S 0.0 mm  2.6 °C 10.9 °C
Massignano (AP) 11/12/18 22.16 5.1 °C 79 % 1.8 °C 1019.3 hPa 6.5 Km/h WSW 1.0 mm  4.8 °C 11.6 °C
Montelabbate (PU) 11/12/18 22.09 3.3 °C 82 % 0.5 °C 1014.1 hPa 3.2 Km/h SSW 0.0 mm  0.4 °C 11.5 °C
San Benedetto del Tronto (AP) 11/12/18 21.00 6.7 °C 62 % -0.1 °C 1017.5 hPa 0.0 Km/h W 0.0 mm  5.7 °C 10.7 °C
 
 
Regione MOSELLE
Località Giorno Ora Temp. Umid. Relat. Dew Point Press. Atm. Velocità Vento Direz. Vento Precip. Temp.
Min
Temp.
Max
Seremange Erzange (Moselle) 11/12/18 22.19 0.2 °C 96 % -0.4 °C 1026.0 hPa 1.5 Km/h WNW 0.0 mm  -0.4 °C 3.4 °C
 
 
Regione PIEMONTE
Località Giorno Ora Temp. Umid. Relat. Dew Point Press. Atm. Velocità Vento Direz. Vento Precip. Temp.
Min
Temp.
Max
Castelferro (AL) 11/12/18 22.18 2.4 °C 71 % -2.3 °C 1020.1 hPa 6.4 Km/h SSW 0.0 mm  -0.2 °C 10.4 °C
Monasterolo Torinese (TO) 11/12/18 22.10 4.1 °C 48 % -5.9 °C 1015.9 hPa 0.0 Km/h --- 0.0 mm  3.3 °C 9.3 °C
Mongrando San Michele (BI) 11/12/18 22.10 2.4 °C 53 % -6.2 °C 1019.1 hPa 1.6 Km/h WNW 0.0 mm  0.8 °C 10.9 °C
Muzzano (BI) 11/12/18 22.10 4.1 °C 55 % -4.2 °C 1018.1 hPa 0.0 Km/h WNW 0.0 mm  3.4 °C 9.4 °C
Nichelino (TO) 11/12/18 22.10 2.5 °C 73 % -1.9 °C 1021.5 hPa 0.0 Km/h --- 0.0 mm  1.8 °C 10.7 °C
Novara (NO) 11/12/18 22.10 0.3 °C 83 % -2.2 °C 1019.1 hPa 0.0 Km/h --- 0.0 mm  0.3 °C 10.6 °C
Parella (TO) 11/12/18 22.09 4.2 °C 57 % -3.6 °C 1017.5 hPa 4.8 Km/h WSW 0.0 mm  1.8 °C 11.6 °C
Pecetto Torinese (TO) 11/12/18 22.09 5.1 °C 44 % -6.2 °C 1019.2 hPa 0.0 Km/h SE 0.0 mm  2.4 °C 9.5 °C
Pila Valsesia (VC) 11/12/18 22.10 -1.8 °C 82 % -4.4 °C 1018.8 hPa 0.0 Km/h --- 0.2 mm  -2.1 °C 5.9 °C
Piovà Massaia (AT) 11/12/18 22.18 3.9 °C 51 % -5.3 °C 1017.9 hPa 0.0 Km/h NW 0.0 mm  1.5 °C 9.7 °C
Pozzolo Formigaro (AL) 11/12/18 22.10 0.1 °C 82 % -2.6 °C 1019.8 hPa 3.2 Km/h S 0.0 mm  -1.6 °C 8.4 °C
Pray (BI) 11/12/18 22.18 -0.9 °C 90 % -2.3 °C 1020.0 hPa 0.0 Km/h --- 0.0 mm  -2.5 °C 10.8 °C
Soriso (NO) 11/12/18 22.10 4.7 °C 51 % -4.6 °C 1020.2 hPa 3.2 Km/h W 0.0 mm  2.1 °C 10.2 °C
Torino Regio Parco (TO) 11/12/18 22.17 4.8 °C 62 % -1.9 °C 1020.3 hPa 0.0 Km/h S 0.0 mm  2.4 °C 11.8 °C
Valenza (AL) 11/12/18 22.10 3.3 °C 72 % -1.2 °C 1019.1 hPa 3.2 Km/h S 0.0 mm  0.4 °C 10.6 °C
Viozene Toria (CN) 11/12/18 22.19 -0.1 °C 73 % -4.3 °C 1011.3 hPa 0.0 Km/h N 0.0 mm  -1.2 °C 5.6 °C
 
 
Regione PUGLIA
Località Giorno Ora Temp. Umid. Relat. Dew Point Press. Atm. Velocità Vento Direz. Vento Precip. Temp.
Min
Temp.
Max
Acquaviva delle Fonti (BA) 11/12/18 22.18 3.4 °C 86 % 1.3 °C 1017.7 hPa 1.7 Km/h WSW 3.8 mm  2.6 °C 10.6 °C
S. Giovanni Rotondo (FG) 11/12/18 22.19 3.2 °C 79 % -0.1 °C 1019.7 hPa 19.3 Km/h NNW 11.4 mm  1.4 °C 6.5 °C
Taranto (TA) 11/12/18 22.19 8.5 °C 70 % 3.3 °C 1015.3 hPa 3.2 Km/h NW 0.0 mm  8.2 °C 12.4 °C
 
 
Regione SARDEGNA
Località Giorno Ora Temp. Umid. Relat. Dew Point Press. Atm. Velocità Vento Direz. Vento Precip. Temp.
Min
Temp.
Max
Bitti (NU) 11/12/18 22.19 0.0 °C 0 % 8.1 °C 0.0 hPa 0.0 Km/h --- 0.0 mm  0.0 °C 0.0 °C
Bonorva (SS) 11/12/18 22.15 7.9 °C 84 % 5.4 °C 1018.6 hPa 4.8 Km/h S 0.0 mm  7.6 °C 10.5 °C
Borore (NU) 11/12/18 22.19 8.2 °C 85 % 5.8 °C 1018.3 hPa 6.7 Km/h SW 0.0 mm  8.2 °C 11.9 °C
Iglesias (CI) 11/12/18 22.19 11.6 °C 81 % 8.5 °C 1021.0 hPa 4.7 Km/h WNW 0.0 mm  11.1 °C 13.6 °C
Oristano (OR) 11/12/18 22.19 11.2 °C 80 % 7.9 °C 1018.1 hPa 0.0 Km/h W 0.0 mm  11.2 °C 15.1 °C
Orosei (NU) 11/12/18 22.15 9.8 °C 77 % 6.0 °C 1017.8 hPa 1.6 Km/h SE 0.0 mm  9.8 °C 15.9 °C
Sinnai (CA) 11/12/18 22.00 10.5 °C 79 % 7.0 °C 1019.7 hPa 0.0 Km/h NNW 0.0 mm  9.6 °C 14.7 °C
 
 
Regione SICILIA
Località Giorno Ora Temp. Umid. Relat. Dew Point Press. Atm. Velocità Vento Direz. Vento Precip. Temp.
Min
Temp.
Max
Barcellona P.G. Centro (ME) 11/12/18 22.18 10.0 °C 73 % 5.4 °C 1019.1 hPa 8.0 Km/h SE 0.0 mm  10.0 °C 16.1 °C
Barcellona Pozzo di Gotto (ME) 11/12/18 22.18 10.8 °C 72 % 5.9 °C 1018.8 hPa 10.2 Km/h WSW 0.0 mm  10.4 °C 15.7 °C
Brolo c/da Parrazzà (ME) 11/12/18 22.15 12.1 °C 64 % 5.5 °C 1019.2 hPa 8.0 Km/h S 0.0 mm  10.6 °C 15.2 °C
Buccheri (SR) 11/12/18 22.04 5.1 °C 86 % 3.0 °C 1018.5 hPa 6.9 Km/h WSW 0.0 mm  4.7 °C 9.5 °C
Caltabellotta (AG) 11/12/18 22.10 6.7 °C 0 % 0.0 °C 1019.9 hPa 0.0 Km/h E 0.4 mm  6.3 °C 9.7 °C
Cammarata (AG) 11/12/18 22.19 5.2 °C 72 % 0.6 °C 1012.5 hPa 0.0 Km/h NE 0.0 mm  5.2 °C 10.5 °C
Cefalù (PA) 11/12/18 22.18 11.3 °C 73 % 6.6 °C 1015.8 hPa 11.1 Km/h S 0.5 mm  11.2 °C 15.5 °C
Marineo (PA) 11/12/18 22.19 7.7 °C 81 % 4.6 °C 1019.3 hPa 6.4 Km/h S 1.0 mm  7.4 °C 13.6 °C
Mirabella Imbaccari (CT) 11/12/18 22.16 8.5 °C 77 % 4.7 °C 1022.4 hPa 3.7 Km/h NNW 0.2 mm  6.8 °C 13.1 °C
Pace del Mela (ME) 11/12/18 22.19 9.6 °C 61 % 2.5 °C 1013.8 hPa 4.3 Km/h SE 0.0 mm  9.3 °C 15.3 °C
Piraino contr. Fiumara (ME) 11/12/18 22.10 9.3 °C 84 % 6.7 °C 1019.9 hPa 0.0 Km/h NE 0.0 mm  8.7 °C 16.1 °C
San Cataldo (CL) 11/12/18 22.19 7.4 °C 69 % 2.1 °C 1015.3 hPa 4.3 Km/h WNW 0.0 mm  6.5 °C 11.6 °C
San Giovanni la Punta Trappeto (CT) 11/12/18 22.15 9.9 °C 76 % 5.9 °C 1019.7 hPa 3.2 Km/h NE 0.0 mm  8.4 °C 16.9 °C
 
 
Regione TOSCANA
Località Giorno Ora Temp. Umid. Relat. Dew Point Press. Atm. Velocità Vento Direz. Vento Precip. Temp.
Min
Temp.
Max
Avenza-Carrara (MS) 11/12/18 22.00 5.4 °C 43 % -6.2 °C 1021.0 hPa 0.0 Km/h N 0.0 mm  5.4 °C 15.9 °C
Bientina (PI) 11/12/18 22.19 4.0 °C 56 % -4.0 °C 1017.5 hPa 0.0 Km/h S 0.0 mm  -1.2 °C 12.2 °C
Carmignano loc. Seano (PO) 11/12/18 22.19 1.0 °C 71 % -3.7 °C 1020.3 hPa 0.0 Km/h SW 0.0 mm  -1.6 °C 12.9 °C
Castelnuovo V.C. (PI) 11/12/18 22.10 2.4 °C 66 % -3.3 °C 1019.4 hPa 0.2 Km/h E 0.0 mm  0.1 °C 8.3 °C
Castiglione della Pescaia Vaticino (GR) 11/12/18 22.19 6.4 °C 50 % -3.3 °C 1009.5 hPa 3.2 Km/h W 0.0 mm  2.4 °C 12.0 °C
Chiusi (SI) 11/12/18 22.05 3.3 °C 70 % -1.7 °C 1017.8 hPa 0.0 Km/h SSE 0.0 mm  1.9 °C 8.4 °C
Isola d'Elba Marina di Campo (LI) 11/12/18 21.45 5.5 °C 74 % 1.2 °C 588.3 hPa 1.6 Km/h NNW 0.0 mm  4.2 °C 15.2 °C
Montespertoli (FI) 11/12/18 22.18 6.5 °C 30 % -9.8 °C 1020.6 hPa 0.0 Km/h N 0.0 mm  1.5 °C 12.9 °C
Montopoli in val d'Arno Loc. Capanne (PI) 11/12/18 22.05 0.0 °C 78 % -3.3 °C 1019.2 hPa 6.9 Km/h E 0.0 mm  -1.9 °C 13.7 °C
Musigliano (PI) 11/12/18 22.17 5.6 °C 44 % -5.7 °C 1018.4 hPa 5.0 Km/h NE 0.0 mm  1.0 °C 15.0 °C
Pisa zona I Passi (PI) 11/12/18 22.19 6.8 °C 37 % -6.9 °C 1020.3 hPa 4.7 Km/h SSE 0.0 mm  0.4 °C 13.4 °C
Reggello (FI) 11/12/18 22.18 1.5 °C 53 % -7.1 °C 1022.2 hPa 9.7 Km/h S 0.0 mm  1.4 °C 10.8 °C
Torri (FI) 11/12/18 22.00 1.7 °C 52 % -7.1 °C 1019.9 hPa 0.0 Km/h --- 0.0 mm  -1.3 °C 11.1 °C
Torrita di Siena (SI) 11/12/18 22.15 -1.7 °C 90 % -3.1 °C 1021.6 hPa 0.0 Km/h --- 0.0 mm  -3.2 °C 10.1 °C
 
 
Regione TRENTINO A. A.
Località Giorno Ora Temp. Umid. Relat. Dew Point Press. Atm. Velocità Vento Direz. Vento Precip. Temp.
Min
Temp.
Max
Ala (TN) 11/12/18 22.18 3.1 °C 49 % -6.6 °C 1020.2 hPa 8.0 Km/h E 0.0 mm  1.8 °C 7.9 °C
Avio (TN) 11/12/18 22.18 6.6 °C 34 % -8.2 °C 1019.1 hPa 2.2 Km/h ENE 0.0 mm  3.5 °C 12.1 °C
Besenello (TN) 11/12/18 22.18 4.1 °C 41 % -8.0 °C 1021.1 hPa 4.5 Km/h WSW 0.0 mm  0.7 °C 10.1 °C
Borgo Valsugana (TN) 11/12/18 22.09 0.3 °C 40 % -11.7 °C 1017.8 hPa 2.1 Km/h WSW 0.0 mm  -0.8 °C 9.3 °C
Fiavè loc. Ballino (TN) 11/12/18 22.19 -1.6 °C 62 % -7.9 °C 1021.1 hPa 2.8 Km/h NNE 0.0 mm  -1.9 °C 5.5 °C
Gardolo (TN) 11/12/18 22.18 1.7 °C 53 % -6.9 °C 1021.5 hPa 0.0 Km/h NE 0.0 mm  0.2 °C 11.2 °C
Isera loc. Reviano (TN) 11/12/18 22.09 2.1 °C 45 % -8.6 °C 1018.1 hPa 8.3 Km/h SW 0.0 mm  0.7 °C 9.5 °C
Lavis (TN) 11/12/18 22.15 0.4 °C 61 % -6.7 °C 1018.3 hPa 11.3 Km/h NNW 0.0 mm  -0.6 °C 10.7 °C
Margone (TN) 11/12/18 22.10 0.1 °C 37 % -12.9 °C 1022.8 hPa 8.7 Km/h NNW 0.0 mm  -1.6 °C 3.9 °C
Martignano (TN) 11/12/18 22.14 5.1 °C 32 % -10.3 °C 1019.6 hPa 37.0 Km/h ENE 0.0 mm  2.1 °C 8.2 °C
Massone di Arco (TN) 11/12/18 22.18 3.6 °C 47 % -6.7 °C 1019.1 hPa 1.0 Km/h ENE 0.0 mm  2.4 °C 10.6 °C
Miola di Piné (TN) 11/12/18 22.19 -0.1 °C 41 % -11.8 °C 1021.2 hPa 9.7 Km/h N 0.0 mm  -0.8 °C 4.7 °C
Padergnone (TN) 11/12/18 21.46 5.1 °C 40 % -7.4 °C 1021.2 hPa 9.1 Km/h N 0.0 mm  2.1 °C 9.7 °C
Taio Mollaro (TN) 11/12/18 22.06 -2.9 °C 69 % -7.8 °C 1021.5 hPa 0.0 Km/h NE 0.0 mm  -4.0 °C 7.7 °C
Trambileno (TN) 11/12/18 22.16 2.0 °C 44 % -9.0 °C 1020.1 hPa 0.0 Km/h N 0.0 mm  -3.0 °C 5.0 °C
Trento (TN) 11/12/18 22.19 3.7 °C 45 % -7.2 °C 1020.3 hPa 6.4 Km/h NNW 0.0 mm  3.1 °C 10.0 °C
Vattaro fraz. Pian dei Pradi (TN) 11/12/18 22.17 0.0 °C 43 % -11.1 °C 1021.4 hPa 18.9 Km/h NNW 0.0 mm  -1.2 °C 3.6 °C
 
 
Regione UMBRIA
Località Giorno Ora Temp. Umid. Relat. Dew Point Press. Atm. Velocità Vento Direz. Vento Precip. Temp.
Min
Temp.
Max
Castiglione del Lago (PG) 11/12/18 22.10 -0.8 °C 90 % -2.2 °C 1022.5 hPa 0.0 Km/h --- 0.2 mm  -2.6 °C 11.8 °C
Foligno (PG) 11/12/18 22.10 2.7 °C 76 % -1.1 °C 1020.2 hPa 1.6 Km/h E 0.0 mm  -1.0 °C 9.5 °C
Orvieto (TR) 11/12/18 22.16 0.3 °C 70 % -4.5 °C 1016.8 hPa 0.0 Km/h S 0.0 mm  -1.9 °C 10.1 °C
Perugia San Mariano (PG) 11/12/18 22.18 3.2 °C 67 % -2.4 °C 1020.8 hPa 0.0 Km/h --- 0.0 mm  -1.3 °C 8.8 °C
Todi (PG) 11/12/18 22.15 4.4 °C 65 % -1.6 °C 1019.0 hPa 2.0 Km/h NW 0.0 mm  0.2 °C 8.2 °C
 
 
Regione VALLE DAOSTA
Località Giorno Ora Temp. Umid. Relat. Dew Point Press. Atm. Velocità Vento Direz. Vento Precip. Temp.
Min
Temp.
Max
Colle del Piccolo San Bernardo La Thuile (AO) 11/12/18 22.16 -9.0 °C 49 % -17.7 °C 1023.3 hPa 13.0 Km/h SW 0.0 mm  -10.1 °C -7.1 °C
 
 
Regione VENETO
Località Giorno Ora Temp. Umid. Relat. Dew Point Press. Atm. Velocità Vento Direz. Vento Precip. Temp.
Min
Temp.
Max
Abano (PD) 11/12/18 22.10 2.5 °C 69 % -2.6 °C 1019.6 hPa 0.0 Km/h NW 0.0 mm  0.4 °C 12.7 °C
Alleghe Lago (BL) 11/12/18 22.18 -2.7 °C 57 % -10.1 °C 1017.6 hPa 6.9 Km/h NNE 0.0 mm  -2.7 °C 2.8 °C
Arquà Polesine (RO) 11/12/18 22.18 -0.2 °C 92 % -1.3 °C 1020.7 hPa 0.0 Km/h NE 0.2 mm  -1.2 °C 9.2 °C
Arzignano loc. Castello (VI) 11/12/18 21.45 5.1 °C 43 % -6.5 °C 1017.5 hPa 0.0 Km/h --- 0.0 mm  3.2 °C 13.8 °C
Arzignano Pugnello (VI) 11/12/18 22.15 5.2 °C 34 % -9.4 °C 1017.1 hPa 0.0 Km/h WSW 0.0 mm  3.4 °C 12.3 °C
Arzignano Tezze (VI) 10/12/18 20.52 1.7 °C 81 % -1.2 °C 1015.9 hPa 0.0 Km/h NW 0.0 mm  0.4 °C 16.2 °C
Asiago Rifugio Val Formica (VI) 11/12/18 22.09 -7.6 °C 59 % -14.2 °C 1020.3 hPa 8.0 Km/h NNW 0.0 mm  -7.6 °C -2.5 °C
Badia Calavena loc. San Valentino (VR) 11/12/18 22.18 1.8 °C 31 % -13.5 °C 1016.7 hPa 4.8 Km/h NW 0.0 mm  1.8 °C 7.2 °C
Bardolino (VR) 11/12/18 22.15 6.7 °C 31 % -9.2 °C 1011.9 hPa 17.7 Km/h ENE 0.0 mm  6.7 °C 11.7 °C
Beccacivetta (VR) 10/12/18 23.33 1.8 °C 77 % -1.8 °C 1016.1 hPa 0.0 Km/h SW 0.3 mm  1.8 °C 13.9 °C
Belluno Castion (BL) 11/12/18 22.00 0.7 °C 54 % -7.6 °C 1019.3 hPa 0.0 Km/h E 0.0 mm  -1.9 °C 8.9 °C
Brendola (VI) 11/12/18 22.18 5.4 °C 21 % -15.2 °C 1004.5 hPa 0.0 Km/h NW 0.0 mm  1.8 °C 15.7 °C
Bresega (PD) 11/12/18 22.15 0.8 °C 88 % -1.1 °C 1018.7 hPa 0.0 Km/h SSW 0.0 mm  0.0 °C 11.4 °C
Brognoligo (VR) 11/12/18 22.09 0.2 °C 66 % -5.4 °C 1015.8 hPa 0.0 Km/h SW 0.0 mm  -1.4 °C 13.0 °C
Carceri (PD) 11/12/18 22.00 3.1 °C 75 % -1.1 °C 1018.2 hPa 4.8 Km/h NW 0.0 mm  0.1 °C 10.7 °C
Cartigliano (VI) 11/12/18 22.18 1.9 °C 45 % -8.8 °C 1018.0 hPa 0.0 Km/h WSW 0.0 mm  1.1 °C 12.3 °C
Casotto (VI) 11/12/18 22.15 4.2 °C 32 % -11.0 °C 1018.6 hPa 4.8 Km/h E 0.0 mm  1.1 °C 8.9 °C
Castel d'Azzano (VR) 11/12/18 22.10 1.7 °C 82 % -1.0 °C 885.4 hPa 0.0 Km/h --- 0.0 mm  0.7 °C 12.2 °C
Castelfranco Veneto (TV) 11/12/18 22.10 1.1 °C 68 % -4.1 °C 1020.9 hPa 0.0 Km/h WSW 0.0 mm  1.0 °C 12.2 °C
Castelgomberto (VI) 11/12/18 21.01 3.4 °C 45 % -7.4 °C 1018.2 hPa 3.7 Km/h NNE 0.0 mm  1.9 °C 12.5 °C
Cavazzale (VI) 10/12/18 23.10 4.6 °C 53 % -4.2 °C 1016.1 hPa 0.0 Km/h --- 0.0 mm  0.7 °C 14.3 °C
Cerea (VR) 11/12/18 22.15 0.6 °C 88 % -1.1 °C 1019.2 hPa 1.6 Km/h NW 0.0 mm  -0.6 °C 12.9 °C
Cerea2 (VR) 11/12/18 22.00 1.6 °C 72 % -2.9 °C 1020.2 hPa 3.2 Km/h N 0.0 mm  -0.2 °C 10.9 °C
Cima Grappa (TV) 11/12/18 22.20 -6.2 °C 52 % -14.5 °C 1023.3 hPa 22.1 Km/h NNW 0.0 mm  -6.4 °C -2.3 °C
Cismon del Grappa loc. Corlo (VI) 11/12/18 22.19 2.7 °C 39 % -9.9 °C 1020.1 hPa 13.0 Km/h ESE 0.0 mm  2.1 °C 7.9 °C
Cogollo del Cengio (VI) 11/12/18 22.18 5.0 °C 10 % -24.1 °C 1017.2 hPa 10.6 Km/h W 0.0 mm  3.5 °C 9.8 °C
Cologna Veneta Sant'Andrea (VR) 11/12/18 22.10 0.3 °C 77 % -3.3 °C 1019.1 hPa 0.0 Km/h --- 0.0 mm  -0.8 °C 10.5 °C
Colognola ai Colli (VR) 11/12/18 22.10 2.2 °C 57 % -5.5 °C 1019.4 hPa 6.4 Km/h NE 0.0 mm  -2.1 °C 11.6 °C
Contrada Dosso Gervasio (VR) 11/12/18 22.00 1.3 °C 33 % -13.2 °C 1017.4 hPa 0.0 Km/h NW 0.0 mm  1.2 °C 5.8 °C
Corrubio di S. Anna d'Alfaedo (VR) 11/12/18 22.15 1.2 °C 38 % -11.6 °C 1020.5 hPa 8.0 Km/h NNW 0.0 mm  1.2 °C 6.1 °C
Costa di Vittorio Veneto (TV) 11/12/18 22.09 8.4 °C 25 % -10.5 °C 1017.2 hPa 1.4 Km/h NNE 0.0 mm  4.5 °C 12.0 °C
Dossobuono (VR) 11/12/18 22.19 3.8 °C 57 % -4.0 °C 1020.3 hPa 3.2 Km/h SE 0.0 mm  0.9 °C 12.1 °C
Erbezzo Passo Fittanze (VR) 11/12/18 22.08 -3.8 °C 49 % -13.0 °C 1021.6 hPa 23.8 Km/h NW 0.0 mm  -5.1 °C -0.8 °C
Falzè di Piave (TV) 11/12/18 20.58 -1.8 °C 85 % -4.0 °C 1019.9 hPa 0.0 Km/h --- 0.0 mm  -1.9 °C 11.8 °C
Farra di Soligo (TV) 11/12/18 22.19 6.1 °C 39 % -6.8 °C 1012.3 hPa 3.6 Km/h N 0.0 mm  1.0 °C 9.6 °C
Feltre Celarda (BL) 11/12/18 22.19 -4.2 °C 88 % -5.9 °C 1019.0 hPa 0.0 Km/h WSW 0.0 mm  -4.4 °C 6.0 °C
Ferrara di M.B. (VR) 11/12/18 22.00 -2.7 °C 37 % -15.4 °C 1016.8 hPa 3.2 Km/h NNW 0.0 mm  -3.2 °C 2.8 °C
Forchiade S. Tomaso Ag. (BL) 11/12/18 22.09 -2.1 °C 52 % -10.7 °C 1018.8 hPa 0.0 Km/h N 0.0 mm  -19.7 °C 3.8 °C
Fumane Contrada La Ca (VR) 11/12/18 22.09 4.8 °C 24 % -14.1 °C 1019.2 hPa 9.7 Km/h N 0.0 mm  3.2 °C 10.2 °C
Gallio (VI) 11/12/18 22.05 -2.2 °C 42 % -13.4 °C 1020.7 hPa 0.0 Km/h N 0.0 mm  -3.2 °C 3.1 °C
Jesolo (VE) 11/12/18 22.00 2.3 °C 87 % 0.4 °C 1015.2 hPa 3.2 Km/h NNE 0.6 mm  -0.5 °C 10.2 °C
Legnago (VR) 11/12/18 22.15 0.8 °C 91 % -0.5 °C 1019.3 hPa 0.0 Km/h --- 0.0 mm  -0.3 °C 10.4 °C
Lendinara2 (RO) 11/12/18 22.09 -0.8 °C 91 % -2.1 °C 1019.3 hPa 0.0 Km/h N 0.3 mm  -2.0 °C 10.8 °C
Lugagnano (VR) 11/12/18 22.14 6.1 °C 38 % -7.2 °C 1018.0 hPa 8.0 Km/h ENE 0.0 mm  1.2 °C 12.7 °C
Lugo di Vicenza (VI) 11/12/18 22.16 5.9 °C 26 % -12.1 °C 1017.1 hPa 0.0 Km/h NNW 0.0 mm  4.4 °C 13.0 °C
Lusiana Sciessere (VI) 11/12/18 22.19 2.0 °C 31 % -13.4 °C 1017.6 hPa 9.7 Km/h NNW 0.0 mm  2.0 °C 6.8 °C
Malga Malera (VR) 11/12/18 18.00 -9.6 °C  %  °C  hPa 0.0 Km/h 0.0 mm   °C  °C
Marano Vicentino2 (VI) 11/12/18 22.15 7.1 °C 31 % -8.9 °C 1017.4 hPa 0.0 Km/h SSW 0.0 mm  3.5 °C 11.0 °C
Marostica Valle San Floriano (VI) 11/12/18 22.15 8.1 °C 25 % -10.7 °C 1019.6 hPa 4.8 Km/h W 0.0 mm  5.3 °C 12.6 °C
Merlara (PD) 11/12/18 22.10 -0.1 °C 83 % -2.6 °C 1018.8 hPa 3.2 Km/h NE 0.0 mm  -0.8 °C 10.0 °C
Mizzole (VR) 11/12/18 22.19 3.7 °C 46 % -6.9 °C 1019.5 hPa 4.0 Km/h NW 0.0 mm  0.7 °C 11.4 °C
Molina (VR) 10/12/18 16.54 6.0 °C 41 % -6.2 °C 1016.8 hPa 1.2 Km/h NE 0.0 mm  6.0 °C 6.3 °C
Monselice (PD) 11/12/18 22.18 3.7 °C 53 % -5.1 °C 1012.8 hPa 1.1 Km/h E 0.0 mm  1.2 °C 11.4 °C
Montebello Vicentino loc. Selva (VI) 11/12/18 21.34 6.9 °C 56 % -1.3 °C 1019.0 hPa 2.8 Km/h NW 0.0 mm  5.9 °C 12.4 °C
Montecchio Maggiore Sant'Urbano (VI) 11/12/18 22.05 6.0 °C 6 % -29.1 °C 1025.6 hPa 1.3 Km/h NE 0.0 mm  4.5 °C 12.0 °C
Monteforte d'Alpone2 (VR) 11/12/18 22.15 3.1 °C 66 % -2.7 °C 1017.6 hPa 1.6 Km/h E 0.0 mm  -1.0 °C 11.6 °C
Montorio (VR) 11/12/18 22.09 3.6 °C 48 % -6.4 °C 1021.2 hPa 8.7 Km/h NNW 0.0 mm  1.1 °C 11.8 °C
Montorso Vicentino (VI) 11/12/18 22.19 5.3 °C 30 % -10.9 °C 1018.9 hPa 3.2 Km/h ENE 0.0 mm  4.6 °C 11.2 °C
Onara extraurbana (PD) 11/12/18 22.14 -0.1 °C 72 % -4.5 °C 1013.6 hPa 0.0 Km/h SSW 0.0 mm  -0.1 °C 13.0 °C
Oppeano (VR) 10/12/18 21.40 2.9 °C 79 % -0.3 °C 1012.9 hPa 0.0 Km/h --- 0.0 mm  2.7 °C 14.4 °C
Pastrengo (VR) 11/12/18 22.09 5.4 °C 28 % -11.6 °C 1020.7 hPa 1.2 Km/h NE 0.0 mm  4.1 °C 11.4 °C
Pastrengo Corné (VR) 11/12/18 22.19 5.9 °C 36 % -8.2 °C 1018.2 hPa 0.0 Km/h ENE 0.0 mm  5.1 °C 11.3 °C
Pedemonte (VR) 11/12/18 22.10 6.2 °C 37 % -7.4 °C 1018.9 hPa 5.0 Km/h NE 0.0 mm  0.6 °C 12.4 °C
Perarolo di Arcugnano (VI) 11/12/18 22.19 0.9 °C 61 % -5.8 °C 988.6 hPa 0.0 Km/h SW 0.0 mm  0.9 °C 9.6 °C
Pescantina Are (VR) 11/12/18 22.14 3.7 °C 54 % -4.7 °C 1019.1 hPa 0.0 Km/h NNW 0.0 mm  1.1 °C 12.4 °C
Peschiera del Garda (VR) 11/12/18 22.10 6.1 °C 41 % -6.2 °C 1019.5 hPa 6.4 Km/h NE 0.0 mm  3.4 °C 11.1 °C
Pian di Castagné (VR) 11/12/18 22.05 6.3 °C 34 % -8.4 °C 1018.8 hPa 0.0 Km/h NNE 0.0 mm  5.0 °C 9.0 °C
Pian di Castagné2 (VR) 11/12/18 22.09 5.0 °C 33 % -9.9 °C 1018.5 hPa 2.9 Km/h NE 0.0 mm  4.5 °C 9.7 °C
Pojana Maggiore Cagnano (VI) 11/12/18 22.12 1.1 °C 65 % -4.7 °C 1017.0 hPa 0.0 Km/h 0.0 mm  -1.0 °C 11.1 °C
Ponte San Nicolò (PD) 11/12/18 22.09 4.8 °C 59 % -2.5 °C 1018.8 hPa 0.0 Km/h WNW 0.0 mm  2.2 °C 12.9 °C
Rifugio Bocca di Selva (VR) 11/12/18 22.19 -1.7 °C 44 % -12.4 °C 1020.2 hPa 16.1 Km/h N 0.0 mm  -3.7 °C 1.2 °C
Rifugio Fiori del Baldo (VR) 11/12/18 20.50 -5.4 °C 38 % -16.0 °C 1015.5 hPa 4.7 Km/h S 0.0 mm  -5.6 °C -1.6 °C
Rifugio Primaneve (VR) 11/12/18 22.14 -6.8 °C 52 % -15.0 °C 1021.7 hPa 32.0 Km/h N 0.0 mm  -7.1 °C -3.1 °C
Romano d'Ezzelino Fellette (VI) 11/12/18 22.18 5.4 °C 34 % -9.2 °C 1021.7 hPa 0.0 Km/h WNW 0.0 mm  4.5 °C 12.3 °C
Rosolina (RO) 11/12/18 22.05 1.3 °C 91 % 0.0 °C 1019.3 hPa 4.8 Km/h WSW 0.1 mm  -1.1 °C 10.6 °C
Rossano Veneto (VI) 11/12/18 22.19 3.6 °C 44 % -7.6 °C 1018.6 hPa 0.0 Km/h W 0.0 mm  3.2 °C 12.7 °C
S. Donà di Piave (VE) 11/12/18 17.54 5.8 °C 79 % 2.4 °C 1017.0 hPa 0.0 Km/h SSW 0.0 mm  -0.6 °C 11.1 °C
S. Giovanni Ilarione2 (VR) 11/12/18 22.15 1.2 °C 62 % -5.3 °C 1019.3 hPa 1.6 Km/h NW 0.0 mm  0.8 °C 12.1 °C
S. Giovanni Lupatoto (VR) 11/12/18 22.10 2.5 °C 69 % -2.6 °C 1021.0 hPa 0.0 Km/h --- 0.0 mm  0.7 °C 11.2 °C
S. Lorenzo di Vittorio Veneto (TV) 11/12/18 22.15 6.6 °C 28 % -10.6 °C 1019.1 hPa 4.8 Km/h NE 0.0 mm  5.8 °C 10.8 °C
S. Maria di Zevio Loc. 3 Ponti (VR) 11/12/18 22.15 2.8 °C 64 % -3.3 °C 1021.3 hPa 1.6 Km/h NNW 0.0 mm  0.6 °C 12.2 °C
S. Maria Maddalena (RO) 11/12/18 22.15 1.4 °C 91 % 0.0 °C 1018.6 hPa 0.0 Km/h NE 0.0 mm  1.2 °C 10.9 °C
S. Martino Lupari (PD) 11/12/18 22.15 1.2 °C 70 % -3.6 °C 822.2 hPa 0.0 Km/h --- 0.0 mm  1.0 °C 13.0 °C
S. Rocco di Villabalzana (VI) 11/12/18 22.17 5.6 °C 36 % -8.3 °C 1019.0 hPa 4.8 Km/h WSW 0.0 mm  3.8 °C 11.7 °C
S. Zeno di Mont. Prada (VR) 11/12/18 22.10 -3.6 °C 61 % -10.1 °C 1019.9 hPa 0.0 Km/h ESE 0.0 mm  -3.6 °C 4.4 °C
Salcedo (VI) 11/12/18 22.19 5.4 °C 39 % -7.5 °C 1016.6 hPa 3.9 Km/h NNW 0.0 mm  4.0 °C 10.3 °C
San Nazario (VI) 11/12/18 22.05 4.8 °C 32 % -10.5 °C 1018.9 hPa 6.1 Km/h N 0.0 mm  4.4 °C 12.7 °C
San Pietro di Rosà (VI) 11/12/18 22.18 4.1 °C 38 % -9.0 °C 1022.4 hPa 0.0 Km/h NE 0.0 mm  3.1 °C 12.4 °C
San Pietro in Cariano (VR) 11/12/18 22.09 6.8 °C 19 % -15.2 °C 1018.5 hPa 6.1 Km/h NE 0.0 mm  3.5 °C 12.0 °C
San Vito di Negrar (VR) 11/12/18 22.10 6.2 °C 32 % -9.3 °C 1019.9 hPa 1.6 Km/h NNE 0.0 mm  1.4 °C 12.6 °C
San Zeno di Mont. Loc. Castello (VR) 11/12/18 22.15 2.4 °C 33 % -12.2 °C 1018.6 hPa 6.9 Km/h SSW 0.0 mm  2.0 °C 6.3 °C
Santa Maria di Negrar (VR) 11/12/18 22.09 5.0 °C 47 % -5.4 °C 1019.9 hPa 1.1 Km/h WNW 0.0 mm  1.0 °C 12.5 °C
Sarcedo (VI) 11/12/18 22.19 5.6 °C 33 % -9.4 °C 1017.7 hPa 5.4 Km/h WNW 0.0 mm  4.1 °C 12.1 °C
Schio (VI) 11/12/18 21.55 6.9 °C 27 % -10.9 °C 1020.6 hPa 4.8 Km/h NNW 0.0 mm  4.5 °C 11.8 °C
Schio Monte Magré (VI) 11/12/18 22.19 5.9 °C 29 % -10.8 °C 0.0 hPa 1.6 Km/h W 0.0 mm  3.4 °C 9.7 °C
Sona Loc. La Colombara (VR) 11/12/18 22.00 1.0 °C 57 % -6.6 °C 1015.5 hPa 2.0 Km/h NW 0.0 mm  1.0 °C 12.0 °C
Tombolo (PD) 11/12/18 22.19 2.2 °C 58 % -5.2 °C 1019.5 hPa 2.8 Km/h NW 0.0 mm  1.2 °C 11.9 °C
Tregnago Loc. Centro (VR) 11/12/18 22.15 4.3 °C 31 % -11.3 °C 1013.2 hPa 3.2 Km/h N 0.0 mm  3.8 °C 9.1 °C
Treviso (TV) 11/12/18 22.18 3.7 °C 56 % -4.3 °C 1018.8 hPa 1.0 Km/h NO 0.0 mm  -0.4 °C 14.0 °C
Val Lastaro (VI) 11/12/18 22.14 -1.7 °C 40 % -13.9 °C 1021.0 hPa 0.0 Km/h NNE 0.0 mm  -2.7 °C 3.4 °C
Valdagno (VI) 11/12/18 22.19 4.9 °C 30 % -11.3 °C 1015.7 hPa 7.2 Km/h W 0.0 mm  2.1 °C 15.3 °C
Valdobbiadene San Pietro di Barbozza (TV) 11/12/18 22.15 6.1 °C 27 % -11.6 °C 1017.7 hPa 3.2 Km/h W 0.0 mm  5.3 °C 10.4 °C
Valli del Pasubio loc. Gisbenti (VI) 11/12/18 22.19 -0.6 °C 57 % -8.1 °C 975.0 hPa 0.4 Km/h --- 0.0 mm  -1.3 °C 8.5 °C
Vazzo Roveré Veronese (VR) 10/12/18 21.25 3.1 °C 37 % -10.2 °C 1013.6 hPa 0.0 Km/h NNE 0.0 mm  2.7 °C 10.3 °C
Verona Bgo Venezia (iz3sly) (VR) 11/12/18 22.11 1.8 °C 61 % -4.9 °C 1017.8 hPa 0.0 Km/h N 0.0 mm  1.2 °C 11.4 °C
Verona Cadidavid2 (VR) 11/12/18 22.10 0.1 °C 74 % -4.0 °C 1019.1 hPa 2.2 Km/h SSW 0.0 mm  -1.2 °C 11.5 °C
Vicenza Campedello (VI) 11/12/18 22.28 2.4 °C 66 % -3.3 °C 1020.0 hPa 0.0 Km/h W 0.0 mm  -0.9 °C 12.6 °C
Vicenza Moracchino (VI) 11/12/18 22.19 1.6 °C 69 % -3.5 °C 1018.1 hPa 3.2 Km/h SW 0.0 mm  0.2 °C 12.8 °C
Vicenza Pecori Giraldi (VI) 11/12/18 22.05 2.7 °C 76 % -1.1 °C 1018.6 hPa 0.0 Km/h SSW 0.0 mm  1.1 °C 14.0 °C
Vicenza S. Lazzaro (VI) 11/12/18 22.16 3.0 °C 64 % -3.1 °C 1018.6 hPa 0.0 Km/h SSW 0.0 mm  1.0 °C 13.0 °C
Vicenza San Gaetano (VI) 11/12/18 22.19 3.4 °C 68 % -2.0 °C 1019.1 hPa 0.0 Km/h SSE 0.0 mm  1.7 °C 13.9 °C
Vidor (TV) 11/12/18 16.04 0.0 °C 0 % 0.0 °C 0.0 hPa 0.0 Km/h N 0.0 mm  0.0 °C 13.6 °C
Vigardolo (VI) 11/12/18 22.09 6.9 °C 31 % -9.1 °C 1016.8 hPa 5.0 Km/h WNW 0.0 mm  2.2 °C 12.8 °C
Vigasio (VR) 11/12/18 22.00 1.5 °C 89 % -0.1 °C 1017.5 hPa 0.0 Km/h WNW 0.0 mm  0.7 °C 12.6 °C
Villabartolomea (VR) 11/12/18 22.16 1.2 °C 86 % -0.9 °C 1018.4 hPa 0.0 Km/h NW 0.0 mm  -0.4 °C 11.1 °C
Vittorio Veneto (TV) 11/12/18 22.05 6.2 °C 32 % -9.3 °C 1018.2 hPa 0.0 Km/h SE 0.0 mm  4.3 °C 11.7 °C
Vittorio Veneto Parco Fenderl (TV) 11/12/18 22.00 7.1 °C 31 % -8.9 °C 1018.8 hPa 12.9 Km/h WNW 0.0 mm  4.6 °C 11.5 °C
Volpago del Montello (TV) 11/12/18 18.15 4.3 °C 48 % -5.8 °C 1018.1 hPa 3.2 Km/h SW 0.0 mm  1.8 °C 12.4 °C
 
 
 
(*) = Precipitazioni nelle ultime 24h.
Dati non aggiornati nell'ultima ora.
   
In collaborazione con:
 
Top! Top!